Loraine, California
Current Conditions -  °F | °C
As of 6:55 PM on Tuesday 25 Nov 2014 (Local Time) from KTSP Reporting Station
Clear Clear  
Wind Chill: 50°   Ceiling: Unl
Heat Index: 50°   Visibility: 10mi
Dew Point: 14°   Wind: 0mph
Humidity: 24%   Direction: NA
Pressure: 30.44"   Gusts: NA
Location:  35.3287°N, 118.419°W
Report Text: KTSP 260255Z AUTO 00000KT 10SM CLR 10/M10 A3044 RMK AO2
Loading
Personal Weather Stations






























Interactive Weather Map New forecast layout! Learn more

10-Day Weather Forecast

Advertisements
Track Severe Weather on mobile